Wetterdaten: aktuell Donnerstag, 14.12.2017 21:00
Datum Zeit Temp. A. Feuchte A. Luftdruck Regen Wind Richtung Richtung Sonnenschein ET UV Solar Taupunkt Windchill Windben
14.12.2017 21:00 2,4 C 86 % 994,6 hPa 0,0 l/m 1,7 km/h (1 Bft) SO 142 0 min 0,025 mm 0,0 UV-I 0 W/m 0,3 C 2,4 C 8,0 km/h (2 Bft)
14.12.2017 20:00 3,6 C 84 % 994,9 hPa 0,0 l/m 1,2 km/h (1 Bft) S-SW 201 0 min 0,025 mm 0,0 UV-I 0 W/m 1,2 C 3,6 C 6,4 km/h (2 Bft)
14.12.2017 19:00 4,1 C 82 % 994,4 hPa 0,2 l/m 2,8 km/h (1 Bft) S-SO 154 0 min 0,026 mm 0,0 UV-I 0 W/m 1,3 C 4,1 C 8,0 km/h (2 Bft)
14.12.2017 18:00 4,3 C 82 % 994,8 hPa 0,2 l/m 7,2 km/h (2 Bft) W-SW 248 0 min 0,025 mm 0,0 UV-I 0 W/m 1,5 C 3,6 C 19,3 km/h (3 Bft)
14.12.2017 17:00 5,0 C 75 % 994,6 hPa 0,0 l/m 6,6 km/h (2 Bft) SO 144 0 min 0,026 mm 0,0 UV-I 0 W/m 0,9 C 4,8 C 19,3 km/h (3 Bft)
14.12.2017 16:00 5,3 C 72 % 995,0 hPa 0,0 l/m 8,9 km/h (2 Bft) W-NW 294 0 min 0,025 mm 0,0 UV-I 0 W/m 0,7 C 3,2 C 17,7 km/h (3 Bft)
14.12.2017 15:00 4,9 C 72 % 994,9 hPa 0,0 l/m 6,1 km/h (2 Bft) W-SW 240 0 min 0,051 mm 0,0 UV-I 30 W/m 0,3 C 4,9 C 12,9 km/h (3 Bft)
14.12.2017 14:00 5,3 C 69 % 995,5 hPa 0,0 l/m 4,3 km/h (1 Bft) S 169 0 min 0,076 mm 0,5 UV-I 69 W/m 0,1 C 5,3 C 14,5 km/h (3 Bft)
14.12.2017 13:00 4,9 C 69 % 995,9 hPa 0,0 l/m 8,0 km/h (2 Bft) SW 234 0 min 0,051 mm 0,6 UV-I 127 W/m -0,3 C 3,5 C 29,0 km/h (5 Bft)
14.12.2017 12:00 4,5 C 73 % 994,9 hPa 0,0 l/m 9,1 km/h (2 Bft) O-NO 74 0 min 0,051 mm 0,0 UV-I 44 W/m 0,1 C 2,2 C 27,4 km/h (4 Bft)
14.12.2017 11:00 3,7 C 82 % 993,7 hPa 0,0 l/m 9,7 km/h (2 Bft) W-SW 255 0 min 0,025 mm 0,0 UV-I 62 W/m 0,9 C 0,9 C 22,5 km/h (4 Bft)
14.12.2017 10:00 3,8 C 82 % 992,5 hPa 0,0 l/m 8,3 km/h (2 Bft) SW 225 5 min 0,000 mm 0,0 UV-I 18 W/m 1,0 C 2,1 C 19,3 km/h (3 Bft)
14.12.2017 09:00 2,3 C 88 % 991,0 hPa 1,8 l/m 7,5 km/h (2 Bft) W-SW 242 0 min 0,000 mm 0,0 UV-I 19 W/m 0,5 C 1,2 C 20,9 km/h (4 Bft)
14.12.2017 08:00 3,9 C 83 % 989,6 hPa 0,0 l/m 3,0 km/h (1 Bft) S-SO 148 0 min 0,000 mm 0,0 UV-I 0 W/m 1,3 C 3,9 C 9,7 km/h (2 Bft)
14.12.2017 07:00 4,0 C 83 % 990,2 hPa 0,0 l/m 1,3 km/h (1 Bft) S 177 0 min 0,002 mm 0,0 UV-I 0 W/m 1,4 C 4,0 C 4,8 km/h (1 Bft)
14.12.2017 06:00 3,8 C 84 % 990,8 hPa 0,0 l/m 2,9 km/h (1 Bft) S-SO 167 0 min 0,002 mm 0,0 UV-I 0 W/m 1,4 C 3,8 C 8,0 km/h (2 Bft)
14.12.2017 05:00 4,6 C 82 % 990,8 hPa 0,0 l/m 3,2 km/h (1 Bft) SW 225 0 min 0,025 mm 0,0 UV-I 0 W/m 1,8 C 4,6 C 9,7 km/h (2 Bft)
14.12.2017 04:00 4,9 C 82 % 990,3 hPa 0,0 l/m 6,4 km/h (2 Bft) S-SW 202 0 min 0,025 mm 0,0 UV-I 0 W/m 2,1 C 4,9 C 14,5 km/h (3 Bft)
14.12.2017 03:00 4,2 C 85 % 990,4 hPa 0,2 l/m 4,8 km/h (1 Bft) S-SO 157 0 min 0,025 mm 0,0 UV-I 0 W/m 1,9 C 4,2 C 22,5 km/h (4 Bft)
14.12.2017 02:00 4,1 C 87 % 990,4 hPa 1,2 l/m 8,0 km/h (2 Bft) S-SO 157 0 min 0,025 mm 0,0 UV-I 0 W/m 2,1 C 2,7 C 22,5 km/h (4 Bft)
14.12.2017 01:00 4,1 C 83 % 991,4 hPa 0,0 l/m 9,7 km/h (2 Bft) S-SO 157 0 min 0,025 mm 0,0 UV-I 0 W/m 1,5 C 1,3 C 19,3 km/h (3 Bft)
14.12.2017 00:00 3,2 C 83 % 993,1 hPa 0,0 l/m 9,7 km/h (2 Bft) S-SO 157 0 min 0,025 mm 0,0 UV-I 0 W/m 0,6 C 0,3 C 20,9 km/h (4 Bft)
_ Min-Zeit 08:45 12:45 07:30 - 19:50 - - - - - - 12:45 11:15 19:50
Minimum _ 2,0 C 67 % 989,4 hPa - 0,6 km/h (0 Bft) - - - - - - -0,6 C -1,5 C 3,2 km/h (1 Bft)
_ Max-Zeit 15:45 08:50 12:55 08:25 15:40 - - 09:35 13:05 12:40 12:15 03:55 14:05 12:20
Maximum _ 5,4 C 89 % 995,9 hPa 0,6 l/m 14,5 km/h
S-SW (3 Bft)
- - 5 min 0,076 mm 0,7 UV-I 151 W/m 2,2 C 5,3 C 41,8 km/h
W-SW (6 Bft)
Durchschnitt _ 4,2 C 80 % 992,9 hPa #3,6 l/m 6,5 km/h (2 Bft) W-SW - #5 min. #0,533 mm 0,6 UV-I 53 W/m 1,0 C 3,0 C 18,8 km/h (3 Bft)